sensor_id;sensor_type;location;lat;lon;timestamp;temperature;humidity
27314;DHT22;14800;48.174;9.798;2023-02-20T00:01:46;9.60;76.30
27314;DHT22;14800;48.174;9.798;2023-02-20T00:04:11;9.60;76.40
27314;DHT22;14800;48.174;9.798;2023-02-20T00:06:37;9.60;76.40
27314;DHT22;14800;48.174;9.798;2023-02-20T00:09:02;9.60;76.40
27314;DHT22;14800;48.174;9.798;2023-02-20T00:11:28;9.60;76.20
27314;DHT22;14800;48.174;9.798;2023-02-20T00:13:54;9.60;76.20
27314;DHT22;14800;48.174;9.798;2023-02-20T00:16:20;9.60;76.10
27314;DHT22;14800;48.174;9.798;2023-02-20T00:18:45;9.60;76.10
27314;DHT22;14800;48.174;9.798;2023-02-20T00:21:11;9.70;76.10
27314;DHT22;14800;48.174;9.798;2023-02-20T00:23:37;9.70;76.10
27314;DHT22;14800;48.174;9.798;2023-02-20T00:26:02;9.70;76.00
27314;DHT22;14800;48.174;9.798;2023-02-20T00:28:28;9.70;76.00
27314;DHT22;14800;48.174;9.798;2023-02-20T00:30:54;9.70;75.90
27314;DHT22;14800;48.174;9.798;2023-02-20T00:33:20;9.60;76.60
27314;DHT22;14800;48.174;9.798;2023-02-20T00:35:45;9.70;75.80
27314;DHT22;14800;48.174;9.798;2023-02-20T00:38:11;9.70;75.70
27314;DHT22;14800;48.174;9.798;2023-02-20T00:40:36;9.70;75.60
27314;DHT22;14800;48.174;9.798;2023-02-20T00:43:02;9.70;75.60
27314;DHT22;14800;48.174;9.798;2023-02-20T00:45:28;9.70;75.50
27314;DHT22;14800;48.174;9.798;2023-02-20T00:47:53;9.70;75.60
27314;DHT22;14800;48.174;9.798;2023-02-20T00:50:19;9.60;75.60
27314;DHT22;14800;48.174;9.798;2023-02-20T00:52:44;9.60;75.60
27314;DHT22;14800;48.174;9.798;2023-02-20T00:55:10;9.60;75.50
27314;DHT22;14800;48.174;9.798;2023-02-20T00:57:36;9.60;75.60
27314;DHT22;14800;48.174;9.798;2023-02-20T01:00:02;9.60;75.60
27314;DHT22;14800;48.174;9.798;2023-02-20T01:02:28;9.60;75.60
27314;DHT22;14800;48.174;9.798;2023-02-20T01:04:53;9.60;75.50
27314;DHT22;14800;48.174;9.798;2023-02-20T01:07:20;9.60;75.40
27314;DHT22;14800;48.174;9.798;2023-02-20T01:09:46;9.60;75.30
27314;DHT22;14800;48.174;9.798;2023-02-20T01:12:12;9.60;75.40
27314;DHT22;14800;48.174;9.798;2023-02-20T01:14:37;9.60;75.30
27314;DHT22;14800;48.174;9.798;2023-02-20T01:17:03;9.60;75.30
27314;DHT22;14800;48.174;9.798;2023-02-20T01:19:28;9.70;75.30
27314;DHT22;14800;48.174;9.798;2023-02-20T01:21:54;9.70;75.10
27314;DHT22;14800;48.174;9.798;2023-02-20T01:24:20;9.70;75.10
27314;DHT22;14800;48.174;9.798;2023-02-20T01:26:47;9.60;74.90
27314;DHT22;14800;48.174;9.798;2023-02-20T01:29:13;9.60;74.90
27314;DHT22;14800;48.174;9.798;2023-02-20T01:31:45;9.70;74.80
27314;DHT22;14800;48.174;9.798;2023-02-20T01:34:10;9.60;74.80
27314;DHT22;14800;48.174;9.798;2023-02-20T01:36:36;9.60;74.90
27314;DHT22;14800;48.174;9.798;2023-02-20T01:39:02;9.60;74.90
27314;DHT22;14800;48.174;9.798;2023-02-20T01:41:28;9.60;74.90
27314;DHT22;14800;48.174;9.798;2023-02-20T01:43:53;9.60;74.90
27314;DHT22;14800;48.174;9.798;2023-02-20T01:49:10;9.60;75.00
27314;DHT22;14800;48.174;9.798;2023-02-20T01:51:43;9.60;74.90
27314;DHT22;14800;48.174;9.798;2023-02-20T01:54:16;9.60;74.90
27314;DHT22;14800;48.174;9.798;2023-02-20T01:56:44;9.70;74.90
27314;DHT22;14800;48.174;9.798;2023-02-20T01:59:10;9.60;74.80
27314;DHT22;14800;48.174;9.798;2023-02-20T02:01:37;9.60;74.70
27314;DHT22;14800;48.174;9.798;2023-02-20T02:04:07;9.60;74.70
27314;DHT22;14800;48.174;9.798;2023-02-20T02:06:39;9.60;74.60
27314;DHT22;14800;48.174;9.798;2023-02-20T02:09:48;9.60;74.60
27314;DHT22;14800;48.174;9.798;2023-02-20T02:12:06;9.60;74.50
27314;DHT22;14800;48.174;9.798;2023-02-20T02:14:32;9.60;74.50
27314;DHT22;14800;48.174;9.798;2023-02-20T02:25:23;9.60;74.40
27314;DHT22;14800;48.174;9.798;2023-02-20T02:41:16;9.60;74.20
27314;DHT22;14800;48.174;9.798;2023-02-20T02:44:05;9.60;74.20
27314;DHT22;14800;48.174;9.798;2023-02-20T02:49:19;9.60;74.00
27314;DHT22;14800;48.174;9.798;2023-02-20T02:51:50;9.50;74.20
27314;DHT22;14800;48.174;9.798;2023-02-20T02:54:19;9.50;74.20
27314;DHT22;14800;48.174;9.798;2023-02-20T02:56:51;9.50;74.20
27314;DHT22;14800;48.174;9.798;2023-02-20T02:59:29;9.50;74.20
27314;DHT22;14800;48.174;9.798;2023-02-20T03:02:02;9.50;74.20
27314;DHT22;14800;48.174;9.798;2023-02-20T03:04:30;9.40;74.00
27314;DHT22;14800;48.174;9.798;2023-02-20T03:07:00;9.40;73.90
27314;DHT22;14800;48.174;9.798;2023-02-20T03:09:32;9.40;73.90
27314;DHT22;14800;48.174;9.798;2023-02-20T03:12:00;9.40;73.90
27314;DHT22;14800;48.174;9.798;2023-02-20T03:14:36;9.40;73.90
27314;DHT22;14800;48.174;9.798;2023-02-20T03:18:28;9.40;73.90
27314;DHT22;14800;48.174;9.798;2023-02-20T03:20:40;9.30;73.70
27314;DHT22;14800;48.174;9.798;2023-02-20T03:23:08;9.30;73.70
27314;DHT22;14800;48.174;9.798;2023-02-20T03:25:46;9.30;73.70
27314;DHT22;14800;48.174;9.798;2023-02-20T03:28:20;9.30;73.70
27314;DHT22;14800;48.174;9.798;2023-02-20T03:33:23;9.30;73.70
27314;DHT22;14800;48.174;9.798;2023-02-20T03:36:10;9.20;73.40
27314;DHT22;14800;48.174;9.798;2023-02-20T03:39:01;9.10;73.40
27314;DHT22;14800;48.174;9.798;2023-02-20T03:41:46;9.00;73.50
27314;DHT22;14800;48.174;9.798;2023-02-20T03:44:32;9.00;73.70
27314;DHT22;14800;48.174;9.798;2023-02-20T03:47:00;8.90;73.70
27314;DHT22;14800;48.174;9.798;2023-02-20T03:49:34;8.90;73.90
27314;DHT22;14800;48.174;9.798;2023-02-20T03:52:01;8.80;73.90
27314;DHT22;14800;48.174;9.798;2023-02-20T03:54:28;8.80;74.00
27314;DHT22;14800;48.174;9.798;2023-02-20T04:00:09;8.80;74.10
27314;DHT22;14800;48.174;9.798;2023-02-20T04:02:39;8.80;74.20
27314;DHT22;14800;48.174;9.798;2023-02-20T04:05:12;8.70;74.10
27314;DHT22;14800;48.174;9.798;2023-02-20T04:07:41;8.70;74.20
27314;DHT22;14800;48.174;9.798;2023-02-20T04:10:13;8.70;74.20
27314;DHT22;14800;48.174;9.798;2023-02-20T04:12:42;8.70;74.30
27314;DHT22;14800;48.174;9.798;2023-02-20T04:15:10;8.70;74.30
27314;DHT22;14800;48.174;9.798;2023-02-20T04:17:43;8.60;74.20
27314;DHT22;14800;48.174;9.798;2023-02-20T04:20:10;8.60;74.20
27314;DHT22;14800;48.174;9.798;2023-02-20T04:22:38;8.60;74.30
27314;DHT22;14800;48.174;9.798;2023-02-20T04:25:18;8.50;74.20
27314;DHT22;14800;48.174;9.798;2023-02-20T04:27:47;8.50;74.20
27314;DHT22;14800;48.174;9.798;2023-02-20T04:30:13;8.50;74.20
27314;DHT22;14800;48.174;9.798;2023-02-20T04:32:38;8.50;74.20
27314;DHT22;14800;48.174;9.798;2023-02-20T04:35:04;8.40;75.20
27314;DHT22;14800;48.174;9.798;2023-02-20T04:37:30;8.40;74.60
27314;DHT22;14800;48.174;9.798;2023-02-20T04:39:55;8.30;74.50
27314;DHT22;14800;48.174;9.798;2023-02-20T04:42:21;8.30;74.60
27314;DHT22;14800;48.174;9.798;2023-02-20T04:44:46;8.30;74.60
27314;DHT22;14800;48.174;9.798;2023-02-20T04:47:15;8.30;74.70
27314;DHT22;14800;48.174;9.798;2023-02-20T04:49:41;8.20;74.80
27314;DHT22;14800;48.174;9.798;2023-02-20T04:52:06;8.20;74.80
27314;DHT22;14800;48.174;9.798;2023-02-20T04:54:32;8.20;74.80
27314;DHT22;14800;48.174;9.798;2023-02-20T04:56:57;8.20;74.90
27314;DHT22;14800;48.174;9.798;2023-02-20T04:59:23;8.20;74.90
27314;DHT22;14800;48.174;9.798;2023-02-20T05:01:49;8.20;74.90
27314;DHT22;14800;48.174;9.798;2023-02-20T05:04:17;8.10;74.90
27314;DHT22;14800;48.174;9.798;2023-02-20T05:06:46;8.10;75.00
27314;DHT22;14800;48.174;9.798;2023-02-20T05:09:12;8.10;75.00
27314;DHT22;14800;48.174;9.798;2023-02-20T05:11:39;8.10;74.90
27314;DHT22;14800;48.174;9.798;2023-02-20T05:14:05;8.10;74.90
27314;DHT22;14800;48.174;9.798;2023-02-20T05:16:31;8.10;74.90
27314;DHT22;14800;48.174;9.798;2023-02-20T05:18:56;8.10;74.90
27314;DHT22;14800;48.174;9.798;2023-02-20T05:21:22;8.00;74.90
27314;DHT22;14800;48.174;9.798;2023-02-20T05:24:06;8.00;74.80
27314;DHT22;14800;48.174;9.798;2023-02-20T05:26:32;8.00;74.90
27314;DHT22;14800;48.174;9.798;2023-02-20T05:28:57;8.00;74.80
27314;DHT22;14800;48.174;9.798;2023-02-20T05:31:23;8.00;74.80
27314;DHT22;14800;48.174;9.798;2023-02-20T05:33:49;7.90;74.80
27314;DHT22;14800;48.174;9.798;2023-02-20T05:36:15;7.90;74.80
27314;DHT22;14800;48.174;9.798;2023-02-20T05:38:41;7.90;74.80
27314;DHT22;14800;48.174;9.798;2023-02-20T05:41:13;7.90;74.90
27314;DHT22;14800;48.174;9.798;2023-02-20T05:43:39;7.90;74.90
27314;DHT22;14800;48.174;9.798;2023-02-20T05:46:05;7.80;74.70
27314;DHT22;14800;48.174;9.798;2023-02-20T05:48:30;7.80;74.90
27314;DHT22;14800;48.174;9.798;2023-02-20T05:50:56;7.70;74.80
27314;DHT22;14800;48.174;9.798;2023-02-20T05:53:21;7.70;74.90
27314;DHT22;14800;48.174;9.798;2023-02-20T05:55:47;7.70;74.90
27314;DHT22;14800;48.174;9.798;2023-02-20T05:58:13;7.70;75.10
27314;DHT22;14800;48.174;9.798;2023-02-20T06:00:39;7.60;75.00
27314;DHT22;14800;48.174;9.798;2023-02-20T06:03:08;7.60;75.10
27314;DHT22;14800;48.174;9.798;2023-02-20T06:05:34;7.60;75.10
27314;DHT22;14800;48.174;9.798;2023-02-20T06:08:00;7.60;75.10
27314;DHT22;14800;48.174;9.798;2023-02-20T06:10:26;7.60;75.30
27314;DHT22;14800;48.174;9.798;2023-02-20T06:12:51;7.60;75.40
27314;DHT22;14800;48.174;9.798;2023-02-20T06:15:17;7.60;75.50
27314;DHT22;14800;48.174;9.798;2023-02-20T06:17:42;7.60;75.60
27314;DHT22;14800;48.174;9.798;2023-02-20T06:20:08;7.60;75.70
27314;DHT22;14800;48.174;9.798;2023-02-20T06:22:33;7.60;75.80
27314;DHT22;14800;48.174;9.798;2023-02-20T06:24:59;7.60;75.80
27314;DHT22;14800;48.174;9.798;2023-02-20T06:27:24;7.60;75.80
27314;DHT22;14800;48.174;9.798;2023-02-20T06:29:50;7.60;75.80
27314;DHT22;14800;48.174;9.798;2023-02-20T06:32:16;7.50;75.80
27314;DHT22;14800;48.174;9.798;2023-02-20T06:34:44;7.60;75.90
27314;DHT22;14800;48.174;9.798;2023-02-20T06:37:11;7.50;75.80
27314;DHT22;14800;48.174;9.798;2023-02-20T06:39:37;7.50;75.80
27314;DHT22;14800;48.174;9.798;2023-02-20T06:42:05;7.50;75.90
27314;DHT22;14800;48.174;9.798;2023-02-20T06:44:30;7.50;76.00
27314;DHT22;14800;48.174;9.798;2023-02-20T06:46:58;7.50;76.00
27314;DHT22;14800;48.174;9.798;2023-02-20T06:49:24;7.50;76.10
27314;DHT22;14800;48.174;9.798;2023-02-20T06:51:52;7.50;76.10
27314;DHT22;14800;48.174;9.798;2023-02-20T06:54:18;7.50;76.30
27314;DHT22;14800;48.174;9.798;2023-02-20T06:56:46;7.50;76.30
27314;DHT22;14800;48.174;9.798;2023-02-20T06:59:12;7.50;76.30
27314;DHT22;14800;48.174;9.798;2023-02-20T07:01:40;7.50;76.30
27314;DHT22;14800;48.174;9.798;2023-02-20T07:04:07;7.50;76.30
27314;DHT22;14800;48.174;9.798;2023-02-20T07:06:35;7.50;76.30
27314;DHT22;14800;48.174;9.798;2023-02-20T07:09:02;7.50;76.30
27314;DHT22;14800;48.174;9.798;2023-02-20T07:11:27;7.50;77.20
27314;DHT22;14800;48.174;9.798;2023-02-20T07:13:53;7.50;76.30
27314;DHT22;14800;48.174;9.798;2023-02-20T07:16:19;7.50;76.30
27314;DHT22;14800;48.174;9.798;2023-02-20T07:18:44;7.50;76.30
27314;DHT22;14800;48.174;9.798;2023-02-20T07:21:10;7.50;76.30
27314;DHT22;14800;48.174;9.798;2023-02-20T07:23:35;7.40;76.40
27314;DHT22;14800;48.174;9.798;2023-02-20T07:26:01;7.40;76.50
27314;DHT22;14800;48.174;9.798;2023-02-20T07:28:27;7.40;76.60
27314;DHT22;14800;48.174;9.798;2023-02-20T07:30:52;7.40;76.80
27314;DHT22;14800;48.174;9.798;2023-02-20T07:33:18;7.40;77.00
27314;DHT22;14800;48.174;9.798;2023-02-20T07:35:44;7.40;77.10
27314;DHT22;14800;48.174;9.798;2023-02-20T07:38:10;7.40;77.30
27314;DHT22;14800;48.174;9.798;2023-02-20T07:40:36;7.50;77.50
27314;DHT22;14800;48.174;9.798;2023-02-20T07:43:01;7.50;77.70
27314;DHT22;14800;48.174;9.798;2023-02-20T07:45:27;7.50;77.80
27314;DHT22;14800;48.174;9.798;2023-02-20T07:47:52;7.60;78.00
27314;DHT22;14800;48.174;9.798;2023-02-20T07:50:18;7.70;78.30
27314;DHT22;14800;48.174;9.798;2023-02-20T07:52:44;7.70;78.40
27314;DHT22;14800;48.174;9.798;2023-02-20T07:55:13;7.80;78.40
27314;DHT22;14800;48.174;9.798;2023-02-20T07:57:39;7.90;78.60
27314;DHT22;14800;48.174;9.798;2023-02-20T08:00:06;7.90;78.60
27314;DHT22;14800;48.174;9.798;2023-02-20T08:02:31;8.00;79.50
27314;DHT22;14800;48.174;9.798;2023-02-20T08:04:57;8.10;78.70
27314;DHT22;14800;48.174;9.798;2023-02-20T08:07:23;8.10;78.50
27314;DHT22;14800;48.174;9.798;2023-02-20T08:09:48;8.20;78.50
27314;DHT22;14800;48.174;9.798;2023-02-20T08:12:14;8.30;78.50
27314;DHT22;14800;48.174;9.798;2023-02-20T08:14:40;8.40;78.50
27314;DHT22;14800;48.174;9.798;2023-02-20T08:17:06;8.40;78.40
27314;DHT22;14800;48.174;9.798;2023-02-20T08:19:31;8.50;78.30
27314;DHT22;14800;48.174;9.798;2023-02-20T08:21:57;8.60;78.30
27314;DHT22;14800;48.174;9.798;2023-02-20T08:24:22;8.60;78.10
27314;DHT22;14800;48.174;9.798;2023-02-20T08:26:48;8.70;78.00
27314;DHT22;14800;48.174;9.798;2023-02-20T08:29:15;8.80;77.90
27314;DHT22;14800;48.174;9.798;2023-02-20T08:31:41;8.80;77.80
27314;DHT22;14800;48.174;9.798;2023-02-20T08:34:07;8.90;77.70
27314;DHT22;14800;48.174;9.798;2023-02-20T08:36:33;8.90;77.60
27314;DHT22;14800;48.174;9.798;2023-02-20T08:38:59;9.00;77.50
27314;DHT22;14800;48.174;9.798;2023-02-20T08:41:27;9.00;78.10
27314;DHT22;14800;48.174;9.798;2023-02-20T08:43:54;9.10;77.20
27314;DHT22;14800;48.174;9.798;2023-02-20T08:46:19;9.20;77.10
27314;DHT22;14800;48.174;9.798;2023-02-20T08:48:45;9.30;77.90
27314;DHT22;14800;48.174;9.798;2023-02-20T08:51:11;9.30;76.80
27314;DHT22;14800;48.174;9.798;2023-02-20T08:53:37;9.40;76.70
27314;DHT22;14800;48.174;9.798;2023-02-20T08:56:04;9.50;76.50
27314;DHT22;14800;48.174;9.798;2023-02-20T08:58:30;9.60;77.40
27314;DHT22;14800;48.174;9.798;2023-02-20T09:00:56;9.70;76.40
27314;DHT22;14800;48.174;9.798;2023-02-20T09:03:22;9.80;76.30
27314;DHT22;14800;48.174;9.798;2023-02-20T09:05:48;9.80;75.80
27314;DHT22;14800;48.174;9.798;2023-02-20T09:08:14;9.90;75.60
27314;DHT22;14800;48.174;9.798;2023-02-20T09:10:39;9.90;75.30
27314;DHT22;14800;48.174;9.798;2023-02-20T09:13:05;10.00;75.30
27314;DHT22;14800;48.174;9.798;2023-02-20T09:15:31;10.00;75.10
27314;DHT22;14800;48.174;9.798;2023-02-20T09:18:03;10.10;75.10
27314;DHT22;14800;48.174;9.798;2023-02-20T09:20:29;10.20;75.10
27314;DHT22;14800;48.174;9.798;2023-02-20T09:22:57;10.20;74.80
27314;DHT22;14800;48.174;9.798;2023-02-20T09:25:23;10.30;74.60
27314;DHT22;14800;48.174;9.798;2023-02-20T09:27:49;10.30;74.50
27314;DHT22;14800;48.174;9.798;2023-02-20T09:30:16;10.40;74.20
27314;DHT22;14800;48.174;9.798;2023-02-20T09:32:44;10.40;74.20
27314;DHT22;14800;48.174;9.798;2023-02-20T09:35:18;10.50;74.20
27314;DHT22;14800;48.174;9.798;2023-02-20T09:37:44;10.50;74.00
27314;DHT22;14800;48.174;9.798;2023-02-20T09:40:11;10.60;74.00
27314;DHT22;14800;48.174;9.798;2023-02-20T09:45:43;10.70;73.70
27314;DHT22;14800;48.174;9.798;2023-02-20T09:50:57;10.80;73.00
27314;DHT22;14800;48.174;9.798;2023-02-20T09:53:26;10.90;72.90
27314;DHT22;14800;48.174;9.798;2023-02-20T09:55:55;10.90;72.50
27314;DHT22;14800;48.174;9.798;2023-02-20T10:01:07;11.10;71.70
27314;DHT22;14800;48.174;9.798;2023-02-20T10:03:38;11.10;72.00
27314;DHT22;14800;48.174;9.798;2023-02-20T10:06:17;11.10;72.40
27314;DHT22;14800;48.174;9.798;2023-02-20T10:08:43;11.30;72.60
27314;DHT22;14800;48.174;9.798;2023-02-20T10:11:20;11.30;73.20
27314;DHT22;14800;48.174;9.798;2023-02-20T10:17:17;11.50;70.90
27314;DHT22;14800;48.174;9.798;2023-02-20T10:22:48;11.70;70.60
27314;DHT22;14800;48.174;9.798;2023-02-20T10:25:19;11.80;70.40
27314;DHT22;14800;48.174;9.798;2023-02-20T10:28:10;11.90;70.40
27314;DHT22;14800;48.174;9.798;2023-02-20T10:30:41;12.00;69.10
27314;DHT22;14800;48.174;9.798;2023-02-20T10:38:55;12.20;66.20
27314;DHT22;14800;48.174;9.798;2023-02-20T10:41:41;12.20;67.60
27314;DHT22;14800;48.174;9.798;2023-02-20T10:44:18;12.30;66.90
27314;DHT22;14800;48.174;9.798;2023-02-20T10:47:00;12.30;68.70
27314;DHT22;14800;48.174;9.798;2023-02-20T10:49:59;12.40;68.60
27314;DHT22;14800;48.174;9.798;2023-02-20T10:52:26;12.50;68.50
27314;DHT22;14800;48.174;9.798;2023-02-20T10:55:10;12.50;67.90
27314;DHT22;14800;48.174;9.798;2023-02-20T10:58:31;12.60;67.60
27314;DHT22;14800;48.174;9.798;2023-02-20T11:01:01;12.70;67.20
27314;DHT22;14800;48.174;9.798;2023-02-20T11:03:57;12.80;66.70
27314;DHT22;14800;48.174;9.798;2023-02-20T11:06:35;12.90;66.90
27314;DHT22;14800;48.174;9.798;2023-02-20T11:09:01;13.00;67.10
27314;DHT22;14800;48.174;9.798;2023-02-20T11:11:33;13.00;67.30
27314;DHT22;14800;48.174;9.798;2023-02-20T11:14:04;13.10;66.90
27314;DHT22;14800;48.174;9.798;2023-02-20T11:16:47;13.20;67.10
27314;DHT22;14800;48.174;9.798;2023-02-20T11:19:39;13.30;66.60
27314;DHT22;14800;48.174;9.798;2023-02-20T11:22:06;13.40;64.20
27314;DHT22;14800;48.174;9.798;2023-02-20T11:24:36;13.50;65.70
27314;DHT22;14800;48.174;9.798;2023-02-20T11:27:21;13.50;64.60
27314;DHT22;14800;48.174;9.798;2023-02-20T11:30:01;13.60;64.30
27314;DHT22;14800;48.174;9.798;2023-02-20T11:32:37;13.60;64.60
27314;DHT22;14800;48.174;9.798;2023-02-20T11:37:38;13.80;64.70
27314;DHT22;14800;48.174;9.798;2023-02-20T11:40:15;13.90;64.90
27314;DHT22;14800;48.174;9.798;2023-02-20T11:42:42;13.90;64.10
27314;DHT22;14800;48.174;9.798;2023-02-20T11:45:15;14.00;63.40
27314;DHT22;14800;48.174;9.798;2023-02-20T11:47:42;14.10;62.60
27314;DHT22;14800;48.174;9.798;2023-02-20T11:50:18;14.10;63.10
27314;DHT22;14800;48.174;9.798;2023-02-20T11:53:00;14.10;62.70
27314;DHT22;14800;48.174;9.798;2023-02-20T11:55:29;14.10;62.60
27314;DHT22;14800;48.174;9.798;2023-02-20T11:57:55;14.20;63.30
27314;DHT22;14800;48.174;9.798;2023-02-20T12:00:29;14.30;62.10
27314;DHT22;14800;48.174;9.798;2023-02-20T12:05:41;14.30;63.00
27314;DHT22;14800;48.174;9.798;2023-02-20T12:08:47;14.40;62.10
27314;DHT22;14800;48.174;9.798;2023-02-20T12:11:20;14.50;60.10
27314;DHT22;14800;48.174;9.798;2023-02-20T12:13:50;14.60;61.70
27314;DHT22;14800;48.174;9.798;2023-02-20T12:24:25;14.90;60.40
27314;DHT22;14800;48.174;9.798;2023-02-20T12:26:58;15.00;60.10
27314;DHT22;14800;48.174;9.798;2023-02-20T12:35:34;15.20;59.10
27314;DHT22;14800;48.174;9.798;2023-02-20T13:00:37;15.60;57.50
27314;DHT22;14800;48.174;9.798;2023-02-20T13:03:19;15.70;56.30
27314;DHT22;14800;48.174;9.798;2023-02-20T13:05:48;15.70;57.30
27314;DHT22;14800;48.174;9.798;2023-02-20T13:11:23;15.80;56.30
27314;DHT22;14800;48.174;9.798;2023-02-20T13:16:51;15.90;56.10
27314;DHT22;14800;48.174;9.798;2023-02-20T13:19:42;16.00;56.70
27314;DHT22;14800;48.174;9.798;2023-02-20T13:22:10;16.00;56.10
27314;DHT22;14800;48.174;9.798;2023-02-20T13:24:39;16.00;57.20
27314;DHT22;14800;48.174;9.798;2023-02-20T13:27:10;16.10;56.70
27314;DHT22;14800;48.174;9.798;2023-02-20T13:29:57;16.10;56.00
27314;DHT22;14800;48.174;9.798;2023-02-20T13:32:28;16.10;55.80
27314;DHT22;14800;48.174;9.798;2023-02-20T13:34:56;16.20;55.20
27314;DHT22;14800;48.174;9.798;2023-02-20T13:45:41;16.30;54.50
27314;DHT22;14800;48.174;9.798;2023-02-20T13:56:22;16.50;54.60
27314;DHT22;14800;48.174;9.798;2023-02-20T13:58:50;16.50;55.30
27314;DHT22;14800;48.174;9.798;2023-02-20T14:01:17;16.50;55.50
27314;DHT22;14800;48.174;9.798;2023-02-20T14:03:43;16.60;55.70
27314;DHT22;14800;48.174;9.798;2023-02-20T14:06:17;16.60;55.40
27314;DHT22;14800;48.174;9.798;2023-02-20T14:08:47;16.60;54.40
27314;DHT22;14800;48.174;9.798;2023-02-20T14:11:34;16.60;54.60
27314;DHT22;14800;48.174;9.798;2023-02-20T14:14:27;16.60;53.50
27314;DHT22;14800;48.174;9.798;2023-02-20T14:17:07;16.70;53.30
27314;DHT22;14800;48.174;9.798;2023-02-20T14:19:38;16.70;54.00
27314;DHT22;14800;48.174;9.798;2023-02-20T14:24:45;16.70;54.60
27314;DHT22;14800;48.174;9.798;2023-02-20T14:27:25;16.80;55.00
27314;DHT22;14800;48.174;9.798;2023-02-20T14:30:11;16.80;54.40
27314;DHT22;14800;48.174;9.798;2023-02-20T14:32:42;16.80;54.20
27314;DHT22;14800;48.174;9.798;2023-02-20T14:38:06;16.80;54.20
27314;DHT22;14800;48.174;9.798;2023-02-20T14:40:40;16.70;54.20
27314;DHT22;14800;48.174;9.798;2023-02-20T14:43:20;16.70;54.00
27314;DHT22;14800;48.174;9.798;2023-02-20T14:45:57;16.70;53.50
27314;DHT22;14800;48.174;9.798;2023-02-20T14:48:27;16.70;54.40
27314;DHT22;14800;48.174;9.798;2023-02-20T14:51:12;16.70;54.30
27314;DHT22;14800;48.174;9.798;2023-02-20T14:53:38;16.70;53.90
27314;DHT22;14800;48.174;9.798;2023-02-20T14:56:19;16.70;54.80
27314;DHT22;14800;48.174;9.798;2023-02-20T14:58:45;16.70;54.10
27314;DHT22;14800;48.174;9.798;2023-02-20T15:01:37;16.70;54.50
27314;DHT22;14800;48.174;9.798;2023-02-20T15:04:12;16.70;53.60
27314;DHT22;14800;48.174;9.798;2023-02-20T15:06:40;16.70;53.60
27314;DHT22;14800;48.174;9.798;2023-02-20T15:09:07;16.70;53.90
27314;DHT22;14800;48.174;9.798;2023-02-20T15:11:34;16.70;54.10
27314;DHT22;14800;48.174;9.798;2023-02-20T15:14:01;16.70;53.90
27314;DHT22;14800;48.174;9.798;2023-02-20T15:16:29;16.70;54.00
27314;DHT22;14800;48.174;9.798;2023-02-20T15:18:55;16.70;54.20
27314;DHT22;14800;48.174;9.798;2023-02-20T15:24:25;16.70;54.40
27314;DHT22;14800;48.174;9.798;2023-02-20T15:26:52;16.70;54.30
27314;DHT22;14800;48.174;9.798;2023-02-20T15:31:44;16.60;55.00
27314;DHT22;14800;48.174;9.798;2023-02-20T15:34:25;16.60;55.10
27314;DHT22;14800;48.174;9.798;2023-02-20T15:36:51;16.50;54.70
27314;DHT22;14800;48.174;9.798;2023-02-20T15:39:17;16.50;55.10
27314;DHT22;14800;48.174;9.798;2023-02-20T15:41:44;16.60;55.00
27314;DHT22;14800;48.174;9.798;2023-02-20T15:44:10;16.50;54.80
27314;DHT22;14800;48.174;9.798;2023-02-20T15:46:36;16.50;54.90
27314;DHT22;14800;48.174;9.798;2023-02-20T15:49:02;16.50;54.80
27314;DHT22;14800;48.174;9.798;2023-02-20T15:51:28;16.50;54.80
27314;DHT22;14800;48.174;9.798;2023-02-20T15:53:56;16.50;54.80
27314;DHT22;14800;48.174;9.798;2023-02-20T15:56:24;16.50;54.60
27314;DHT22;14800;48.174;9.798;2023-02-20T15:58:51;16.50;54.70
27314;DHT22;14800;48.174;9.798;2023-02-20T16:01:16;16.40;54.60
27314;DHT22;14800;48.174;9.798;2023-02-20T16:03:42;16.40;54.60
27314;DHT22;14800;48.174;9.798;2023-02-20T16:06:10;16.40;54.60
27314;DHT22;14800;48.174;9.798;2023-02-20T16:08:36;16.40;54.70
27314;DHT22;14800;48.174;9.798;2023-02-20T16:11:01;16.40;54.70
27314;DHT22;14800;48.174;9.798;2023-02-20T16:13:40;16.40;54.70
27314;DHT22;14800;48.174;9.798;2023-02-20T16:16:19;16.30;54.30
27314;DHT22;14800;48.174;9.798;2023-02-20T16:18:45;16.30;54.50
27314;DHT22;14800;48.174;9.798;2023-02-20T16:21:15;16.30;54.90
27314;DHT22;14800;48.174;9.798;2023-02-20T16:23:42;16.20;54.70
27314;DHT22;14800;48.174;9.798;2023-02-20T16:26:11;16.20;55.00
27314;DHT22;14800;48.174;9.798;2023-02-20T16:28:37;16.20;55.00
27314;DHT22;14800;48.174;9.798;2023-02-20T16:31:02;16.10;55.00
27314;DHT22;14800;48.174;9.798;2023-02-20T16:33:28;16.10;55.00
27314;DHT22;14800;48.174;9.798;2023-02-20T16:35:54;16.10;55.00
27314;DHT22;14800;48.174;9.798;2023-02-20T16:38:20;16.00;54.90
27314;DHT22;14800;48.174;9.798;2023-02-20T16:40:45;16.00;55.10
27314;DHT22;14800;48.174;9.798;2023-02-20T16:43:14;15.90;55.10
27314;DHT22;14800;48.174;9.798;2023-02-20T16:45:40;15.90;55.10
27314;DHT22;14800;48.174;9.798;2023-02-20T16:48:13;15.80;55.10
27314;DHT22;14800;48.174;9.798;2023-02-20T16:50:39;15.70;54.90
27314;DHT22;14800;48.174;9.798;2023-02-20T16:53:05;15.70;55.20
27314;DHT22;14800;48.174;9.798;2023-02-20T16:57:57;15.50;55.50
27314;DHT22;14800;48.174;9.798;2023-02-20T17:00:26;15.50;55.50
27314;DHT22;14800;48.174;9.798;2023-02-20T17:02:52;15.40;55.60
27314;DHT22;14800;48.174;9.798;2023-02-20T17:05:31;15.20;55.60
27314;DHT22;14800;48.174;9.798;2023-02-20T17:07:57;15.10;55.60
27314;DHT22;14800;48.174;9.798;2023-02-20T17:10:24;15.00;55.90
27314;DHT22;14800;48.174;9.798;2023-02-20T17:12:49;14.80;56.10
27314;DHT22;14800;48.174;9.798;2023-02-20T17:15:17;14.70;56.30
27314;DHT22;14800;48.174;9.798;2023-02-20T17:17:44;14.60;56.50
27314;DHT22;14800;48.174;9.798;2023-02-20T17:20:15;14.50;56.80
27314;DHT22;14800;48.174;9.798;2023-02-20T17:22:41;14.40;57.00
27314;DHT22;14800;48.174;9.798;2023-02-20T17:25:08;14.20;57.10
27314;DHT22;14800;48.174;9.798;2023-02-20T17:27:34;14.20;57.40
27314;DHT22;14800;48.174;9.798;2023-02-20T17:30:00;14.10;57.50
27314;DHT22;14800;48.174;9.798;2023-02-20T17:32:26;13.90;57.60
27314;DHT22;14800;48.174;9.798;2023-02-20T17:34:52;13.80;57.80
27314;DHT22;14800;48.174;9.798;2023-02-20T17:37:19;13.70;57.90
27314;DHT22;14800;48.174;9.798;2023-02-20T17:39:45;13.50;58.00
27314;DHT22;14800;48.174;9.798;2023-02-20T17:42:11;13.40;58.20
27314;DHT22;14800;48.174;9.798;2023-02-20T17:44:37;13.30;58.40
27314;DHT22;14800;48.174;9.798;2023-02-20T17:47:03;13.20;58.60
27314;DHT22;14800;48.174;9.798;2023-02-20T17:49:29;13.00;58.70
27314;DHT22;14800;48.174;9.798;2023-02-20T17:51:56;12.90;58.90
27314;DHT22;14800;48.174;9.798;2023-02-20T17:54:29;12.80;59.00
27314;DHT22;14800;48.174;9.798;2023-02-20T17:56:58;12.80;59.40
27314;DHT22;14800;48.174;9.798;2023-02-20T17:59:24;12.60;59.40
27314;DHT22;14800;48.174;9.798;2023-02-20T18:01:50;12.50;59.60
27314;DHT22;14800;48.174;9.798;2023-02-20T18:04:16;12.40;59.80
27314;DHT22;14800;48.174;9.798;2023-02-20T18:06:43;12.30;60.00